Time;durP1;ratioP1;P1;durP2;ratioP2;P2;SDS_P1;SDS_P2;PMS_P1;PMS_P2;Temp;Humidity;BMP_temperature;BMP_pressure;BME280_temperature;BME280_humidity;BME280_pressure;Samples;Min_cycle;Max_cycle;Signal;HPM_P1;HPM_P2
2023/01/07 00:01:55;;;;;;;6.78;2.63;;;18.20;90.40;;;;;;7409832;19;19919;-80
2023/01/07 00:04:24;;;;;;;8.48;3.33;;;18.10;90.10;;;;;;7410105;19;19924;-79
2023/01/07 00:06:53;;;;;;;6.40;2.95;;;18.10;90.10;;;;;;7409651;19;19923;-81
2023/01/07 00:09:23;;;;;;;6.25;2.50;;;18.10;90.10;;;;;;7409728;19;20377;-81
2023/01/07 00:11:58;;;;;;;5.85;3.00;;;18.10;90.10;;;;;;7407168;19;19923;-80
2023/01/07 00:14:27;;;;;;;5.95;4.00;;;18.10;90.10;;;;;;7408709;19;19918;-79
2023/01/07 00:16:56;;;;;;;7.10;2.80;;;18.00;90.00;;;;;;7409735;19;20003;-79
2023/01/07 00:19:25;;;;;;;7.78;3.22;;;18.00;90.00;;;;;;7407511;19;19930;-79
2023/01/07 00:21:59;;;;;;;7.07;3.63;;;18.00;90.00;;;;;;7406776;19;19918;-80
2023/01/07 00:24:33;;;;;;;7.25;2.63;;;18.00;90.00;;;;;;7407087;19;20360;-79
2023/01/07 00:27:05;;;;;;;7.68;3.80;;;18.00;90.00;;;;;;7408437;19;19933;-81
2023/01/07 00:29:35;;;;;;;5.53;3.20;;;17.90;89.90;;;;;;7406100;19;19914;-79
2023/01/07 00:32:04;;;;;;;5.97;3.70;;;17.90;89.90;;;;;;7404131;19;19926;-79
2023/01/07 00:34:34;;;;;;;5.55;2.20;;;18.00;89.90;;;;;;7405882;19;19925;-79
2023/01/07 00:39:44;;;;;;;5.95;3.13;;;17.90;89.80;;;;;;7405285;19;20386;-79
2023/01/07 00:44:57;;;;;;;5.70;3.15;;;17.90;89.70;;;;;;7407272;19;19925;-80
2023/01/07 00:47:26;;;;;;;5.35;1.95;;;17.90;89.70;;;;;;7406122;19;19930;-80
2023/01/07 00:49:55;;;;;;;7.25;3.40;;;17.90;89.60;;;;;;7405656;19;19943;-80
2023/01/07 00:52:24;;;;;;;6.10;3.47;;;17.90;89.70;;;;;;7409438;19;20340;-80
2023/01/07 00:54:53;;;;;;;6.88;3.03;;;17.80;89.50;;;;;;7407937;19;19939;-79
2023/01/07 00:57:25;;;;;;;5.80;2.78;;;17.80;89.50;;;;;;7406394;19;19911;-78
2023/01/07 00:59:54;;;;;;;4.20;3.00;;;17.80;89.40;;;;;;7406244;19;19919;-79
2023/01/07 01:02:23;;;;;;;5.82;3.15;;;17.80;89.40;;;;;;7406114;19;19911;-80
2023/01/07 01:04:52;;;;;;;6.18;2.88;;;17.80;89.40;;;;;;7404782;19;20408;-78
2023/01/07 01:07:22;;;;;;;4.47;1.80;;;17.80;89.30;;;;;;7405794;19;20299;-80
2023/01/07 01:09:51;;;;;;;6.07;1.98;;;17.70;89.30;;;;;;7405726;19;20338;-79
2023/01/07 01:12:21;;;;;;;7.30;2.90;;;17.80;89.30;;;;;;7409286;19;19918;-79
2023/01/07 01:14:52;;;;;;;4.88;3.22;;;17.80;89.20;;;;;;7406846;19;19919;-79
2023/01/07 01:17:22;;;;;;;5.63;2.97;;;17.80;89.20;;;;;;7407263;19;19915;-79
2023/01/07 01:19:51;;;;;;;5.38;1.83;;;17.70;89.20;;;;;;7406864;19;19993;-79
2023/01/07 01:22:21;;;;;;;4.93;1.77;;;17.70;89.10;;;;;;7409489;19;19974;-79
2023/01/07 01:24:50;;;;;;;4.85;2.70;;;17.70;89.10;;;;;;7405926;19;20012;-79
2023/01/07 01:27:20;;;;;;;5.57;3.05;;;17.70;89.00;;;;;;7406391;19;19918;-80
2023/01/07 01:29:51;;;;;;;6.50;2.90;;;17.70;89.00;;;;;;7403361;19;19914;-80
2023/01/07 01:32:20;;;;;;;4.95;3.00;;;17.70;88.90;;;;;;7401151;19;19918;-78
2023/01/07 01:34:49;;;;;;;3.97;1.52;;;17.70;88.90;;;;;;7404723;19;19923;-79
2023/01/07 01:37:19;;;;;;;7.60;2.75;;;17.70;88.90;;;;;;7406460;19;19930;-79
2023/01/07 01:39:48;;;;;;;6.30;1.98;;;17.60;88.80;;;;;;7407441;19;19965;-78
2023/01/07 01:42:19;;;;;;;4.63;2.42;;;17.60;88.70;;;;;;7406105;19;19939;-79
2023/01/07 01:44:55;;;;;;;3.72;2.00;;;17.70;88.70;;;;;;7404062;19;20290;-78
2023/01/07 01:47:29;;;;;;;3.85;2.42;;;17.60;88.60;;;;;;7406046;19;20345;-79
2023/01/07 01:50:03;;;;;;;3.83;2.38;;;17.60;88.60;;;;;;7405622;19;19946;-80
2023/01/07 01:52:36;;;;;;;6.03;3.13;;;17.60;88.50;;;;;;7403716;19;19922;-80
2023/01/07 01:55:08;;;;;;;4.20;2.42;;;17.60;88.40;;;;;;7402039;19;19978;-80
2023/01/07 01:57:39;;;;;;;3.72;1.30;;;17.60;88.40;;;;;;7406058;19;19922;-79
2023/01/07 02:00:15;;;;;;;3.70;2.10;;;17.60;88.40;;;;;;7405501;19;19930;-80
2023/01/07 02:02:49;;;;;;;5.05;2.85;;;17.60;88.40;;;;;;7403797;19;19954;-77
2023/01/07 02:05:18;;;;;;;3.88;2.08;;;17.60;88.40;;;;;;7402481;19;19919;-79
2023/01/07 02:07:47;;;;;;;;;;;17.60;88.40;;;;;;7407908;19;19926;-78
2023/01/07 02:10:18;;;;;;;4.28;2.47;;;17.60;88.20;;;;;;7405217;19;19986;-79
2023/01/07 02:12:58;;;;;;;3.10;2.08;;;17.60;88.40;;;;;;7405914;19;19922;-79
2023/01/07 02:15:40;;;;;;;4.50;3.08;;;17.60;88.40;;;;;;7402069;19;19922;-79
2023/01/07 02:18:25;;;;;;;3.13;2.15;;;17.60;88.30;;;;;;7406737;19;19926;-80
2023/01/07 02:21:16;;;;;;;3.03;2.13;;;17.60;88.30;;;;;;7405722;19;19919;-79
2023/01/07 02:24:18;;;;;;;3.88;1.30;;;17.50;88.30;;;;;;7403908;19;19926;-80
2023/01/07 02:27:17;;;;;;;4.07;1.95;;;17.50;88.30;;;;;;7403743;19;19929;-81
2023/01/07 02:30:33;;;;;;;3.35;2.25;;;17.50;88.30;;;;;;7399564;19;19925;-80
2023/01/07 02:33:28;;;;;;;3.85;2.65;;;17.50;88.30;;;;;;7402299;19;19918;-79
2023/01/07 02:36:26;;;;;;;2.63;1.08;;;17.50;88.30;;;;;;7404371;19;19921;-79
2023/01/07 02:39:27;;;;;;;3.15;1.85;;;17.50;88.20;;;;;;7401151;19;19918;-79
2023/01/07 02:42:00;;;;;;;3.65;1.75;;;17.50;88.20;;;;;;7401777;19;19951;-80
2023/01/07 02:44:36;;;;;;;3.85;1.75;;;17.40;88.20;;;;;;7404255;19;19964;-79
2023/01/07 02:47:14;;;;;;;3.13;2.25;;;17.50;88.20;;;;;;7403372;19;19915;-80
2023/01/07 02:49:48;;;;;;;3.08;2.50;;;17.50;88.20;;;;;;7403901;19;19926;-80
2023/01/07 02:52:21;;;;;;;2.88;1.67;;;17.40;88.10;;;;;;7400733;19;19947;-79
2023/01/07 02:54:55;;;;;;;2.28;1.55;;;17.40;88.10;;;;;;7399631;19;19956;-79
2023/01/07 02:57:49;;;;;;;3.30;1.92;;;17.50;88.20;;;;;;7399889;19;19959;-79
2023/01/07 03:00:24;;;;;;;;;;;17.50;88.20;;;;;;7406407;19;19919;-79
2023/01/07 03:03:15;;;;;;;3.15;1.88;;;17.40;88.00;;;;;;7402812;19;19995;-80
2023/01/07 03:06:00;;;;;;;2.92;1.63;;;17.40;88.10;;;;;;7405774;19;19938;-78
2023/01/07 03:08:57;;;;;;;2.85;0.80;;;17.40;88.10;;;;;;7409907;19;20470;-79
2023/01/07 03:11:31;;;;;;;3.15;1.08;;;17.40;88.00;;;;;;7410953;19;20270;-80
2023/01/07 03:14:07;;;;;;;2.47;1.08;;;17.40;88.00;;;;;;7412726;19;19915;-79
2023/01/07 03:16:39;;;;;;;2.60;1.70;;;17.40;88.10;;;;;;7408395;19;19943;-79
2023/01/07 03:19:11;;;;;;;2.88;1.15;;;17.40;88.10;;;;;;7410179;19;19922;-78
2023/01/07 03:21:43;;;;;;;2.45;0.80;;;17.40;88.10;;;;;;7408038;19;19927;-79
2023/01/07 03:24:12;;;;;;;2.40;1.60;;;17.50;88.00;;;;;;7411434;19;19937;-79
2023/01/07 03:26:43;;;;;;;;;;;17.50;88.00;;;;;;7406991;19;19978;-79
2023/01/07 03:29:16;;;;;;;2.95;1.85;;;17.50;87.80;;;;;;7406796;19;19919;-79
2023/01/07 03:31:53;;;;;;;2.10;0.77;;;17.60;87.70;;;;;;7407582;19;20333;-79
2023/01/07 03:34:26;;;;;;;3.25;1.63;;;17.70;87.50;;;;;;7406712;19;19922;-79
2023/01/07 03:37:01;;;;;;;2.50;0.75;;;17.80;87.20;;;;;;7407259;19;19943;-79
2023/01/07 03:39:34;;;;;;;2.47;0.82;;;17.80;87.00;;;;;;7410461;19;19974;-80
2023/01/07 03:44:49;;;;;;;1.90;0.60;;;18.00;86.30;;;;;;7410654;19;19937;-80
2023/01/07 03:47:18;;;;;;;2.55;1.55;;;18.10;86.00;;;;;;7401955;19;19922;-79
2023/01/07 03:49:47;;;;;;;2.97;1.77;;;18.20;85.70;;;;;;7407371;19;19943;-80
2023/01/07 03:52:19;;;;;;;2.45;1.50;;;18.30;85.40;;;;;;7407756;19;20552;-78
2023/01/07 03:54:48;;;;;;;2.00;1.30;;;18.40;85.10;;;;;;7407372;19;19998;-79
2023/01/07 03:57:17;;;;;;;2.15;0.50;;;18.50;84.80;;;;;;7408986;19;20327;-78
2023/01/07 03:59:46;;;;;;;2.00;0.45;;;18.50;84.50;;;;;;7411199;19;19917;-78
2023/01/07 04:02:15;;;;;;;3.22;1.27;;;18.60;84.20;;;;;;7406498;19;19918;-79
2023/01/07 04:04:44;;;;;;;1.80;1.27;;;18.60;84.00;;;;;;7407679;19;19918;-76
2023/01/07 04:07:13;;;;;;;1.90;0.68;;;18.70;83.90;;;;;;7405113;19;20268;-80
2023/01/07 04:09:46;;;;;;;1.88;1.15;;;18.70;83.70;;;;;;7407415;19;19926;-79
2023/01/07 04:12:15;;;;;;;2.30;1.15;;;18.70;83.60;;;;;;7405601;19;19915;-79
2023/01/07 04:14:45;;;;;;;2.85;1.17;;;18.70;83.60;;;;;;7405854;19;19939;-80
2023/01/07 04:17:14;;;;;;;2.88;1.35;;;18.70;83.50;;;;;;7405128;19;19943;-80
2023/01/07 04:19:44;;;;;;;2.47;0.43;;;18.60;83.40;;;;;;7407371;19;20518;-80
2023/01/07 04:22:13;;;;;;;2.03;1.52;;;18.60;83.40;;;;;;7410269;19;19922;-79
2023/01/07 04:25:05;;;;;;;2.90;1.13;;;18.60;83.50;;;;;;7406975;19;19926;-78
2023/01/07 04:27:34;;;;;;;2.10;0.55;;;18.60;83.50;;;;;;7405418;19;20340;-80
2023/01/07 04:30:03;;;;;;;1.65;0.50;;;18.50;83.50;;;;;;7406487;19;20265;-79
2023/01/07 04:32:32;;;;;;;1.92;1.20;;;18.50;83.50;;;;;;7406846;19;19920;-80
2023/01/07 04:35:01;;;;;;;1.70;0.60;;;18.50;83.50;;;;;;7404967;19;19915;-79
2023/01/07 04:37:31;;;;;;;1.95;0.90;;;18.40;83.50;;;;;;7405775;19;19943;-80
2023/01/07 04:39:59;;;;;;;2.97;1.38;;;18.50;83.60;;;;;;7410094;19;19966;-79
2023/01/07 04:42:31;;;;;;;2.90;1.15;;;18.40;83.60;;;;;;7411231;19;19944;-78
2023/01/07 04:45:01;;;;;;;2.38;1.42;;;18.40;84.20;;;;;;7410593;19;19923;-80
2023/01/07 04:47:30;;;;;;;2.47;0.52;;;18.40;83.70;;;;;;7407971;19;19926;-80
2023/01/07 04:49:59;;;;;;;2.08;1.42;;;18.30;83.70;;;;;;7409457;19;20607;-79
2023/01/07 04:52:28;;;;;;;2.10;1.27;;;18.30;83.80;;;;;;7406323;19;19918;-79
2023/01/07 04:54:57;;;;;;;2.17;1.70;;;18.30;83.80;;;;;;7403538;19;19923;-78
2023/01/07 04:57:26;;;;;;;2.42;1.48;;;18.20;83.80;;;;;;7407568;19;19922;-80
2023/01/07 04:59:58;;;;;;;2.17;1.27;;;18.20;83.90;;;;;;7407818;19;19929;-79
2023/01/07 05:02:27;;;;;;;1.70;1.27;;;18.20;83.80;;;;;;7406277;19;19928;-80
2023/01/07 05:04:56;;;;;;;1.65;0.60;;;18.20;83.90;;;;;;7408918;19;20305;-79
2023/01/07 05:07:25;;;;;;;1.85;0.70;;;18.10;83.90;;;;;;7405453;19;19923;-79
2023/01/07 05:09:54;;;;;;;2.60;1.55;;;18.10;83.90;;;;;;7407420;19;19951;-80
2023/01/07 05:12:23;;;;;;;2.17;1.08;;;18.10;83.90;;;;;;7406813;19;20365;-79
2023/01/07 05:14:53;;;;;;;2.55;1.40;;;18.00;83.90;;;;;;7406455;19;19918;-80
2023/01/07 05:17:24;;;;;;;2.50;1.48;;;18.00;83.90;;;;;;7408200;19;20341;-80
2023/01/07 05:19:53;;;;;;;1.80;0.70;;;18.00;83.90;;;;;;7405126;19;19922;-79
2023/01/07 05:22:22;;;;;;;2.08;0.60;;;18.00;83.90;;;;;;7406128;19;20296;-79
2023/01/07 05:24:51;;;;;;;2.10;0.77;;;18.00;84.00;;;;;;7403447;19;19943;-80
2023/01/07 05:27:20;;;;;;;2.22;1.20;;;17.90;83.90;;;;;;7403902;19;19981;-79
2023/01/07 05:29:49;;;;;;;2.08;0.68;;;17.90;84.00;;;;;;7408198;19;19947;-79
2023/01/07 05:32:20;;;;;;;2.00;1.70;;;17.90;84.00;;;;;;7405626;19;19978;-80
2023/01/07 05:34:52;;;;;;;1.55;0.40;;;17.90;84.10;;;;;;7404019;19;20032;-79
2023/01/07 05:37:22;;;;;;;2.97;1.38;;;17.80;84.00;;;;;;7404349;19;20578;-80
2023/01/07 05:39:51;;;;;;;1.83;1.10;;;17.80;84.00;;;;;;7406562;19;20060;-80
2023/01/07 05:42:20;;;;;;;2.38;1.23;;;17.80;84.10;;;;;;7405042;19;20165;-79
2023/01/07 05:44:49;;;;;;;2.05;0.68;;;17.80;84.10;;;;;;7405030;19;20345;-79
2023/01/07 05:47:18;;;;;;;2.38;0.82;;;17.80;84.70;;;;;;7404525;19;19939;-80
2023/01/07 05:49:47;;;;;;;2.60;1.40;;;17.80;84.20;;;;;;7405139;19;19950;-79
2023/01/07 05:52:19;;;;;;;2.13;0.40;;;17.70;84.10;;;;;;7404216;19;19933;-80
2023/01/07 05:54:48;;;;;;;2.10;0.80;;;17.70;84.20;;;;;;7404453;19;19918;-80
2023/01/07 05:57:17;;;;;;;2.22;1.48;;;17.60;84.10;;;;;;7407786;19;19926;-79
2023/01/07 05:59:46;;;;;;;2.10;1.38;;;17.70;84.20;;;;;;7403834;19;19910;-78
2023/01/07 06:02:15;;;;;;;1.88;0.55;;;17.70;84.20;;;;;;7402095;19;20275;-80
2023/01/07 06:04:49;;;;;;;2.50;1.10;;;17.60;84.20;;;;;;7403816;19;19918;-78
2023/01/07 06:07:21;;;;;;;1.85;0.60;;;17.60;84.20;;;;;;7404046;19;19982;-79
2023/01/07 06:09:50;;;;;;;1.65;0.50;;;17.60;84.20;;;;;;7403899;19;19918;-79
2023/01/07 06:12:19;;;;;;;2.42;0.50;;;17.60;84.20;;;;;;7406430;19;19962;-79
2023/01/07 06:14:49;;;;;;;1.85;1.10;;;17.60;84.30;;;;;;7404995;19;19922;-79
2023/01/07 06:17:39;;;;;;;2.33;1.50;;;17.60;84.30;;;;;;7403935;19;19923;-79
2023/01/07 06:20:28;;;;;;;2.50;1.33;;;17.60;84.40;;;;;;7401853;19;19923;-79
2023/01/07 06:23:20;;;;;;;2.13;1.33;;;17.50;84.30;;;;;;7402327;19;19919;-79
2023/01/07 06:26:08;;;;;;;2.28;1.27;;;17.50;84.30;;;;;;7404029;19;20710;-80
2023/01/07 06:28:57;;;;;;;1.60;1.23;;;17.50;84.30;;;;;;7402447;19;19918;-81
2023/01/07 06:31:26;;;;;;;2.42;0.40;;;17.50;84.40;;;;;;7401574;19;19926;-79
2023/01/07 06:33:56;;;;;;;2.13;0.70;;;17.50;84.30;;;;;;7402088;19;20344;-81
2023/01/07 06:36:25;;;;;;;1.90;1.52;;;17.50;84.20;;;;;;7404667;19;19986;-80
2023/01/07 06:38:56;;;;;;;2.00;0.77;;;17.60;84.20;;;;;;7404320;19;20011;-80
2023/01/07 06:41:25;;;;;;;2.85;1.60;;;17.60;84.00;;;;;;7401290;19;19993;-80
2023/01/07 06:43:54;;;;;;;2.58;0.75;;;17.70;84.00;;;;;;7405563;19;20349;-79
2023/01/07 06:46:28;;;;;;;2.80;1.42;;;17.70;83.70;;;;;;7402887;19;19915;-80
2023/01/07 06:48:57;;;;;;;2.38;0.77;;;17.80;83.50;;;;;;7404686;19;19922;-79
2023/01/07 06:51:26;;;;;;;2.42;1.08;;;17.90;83.30;;;;;;7402872;19;19919;-79
2023/01/07 06:53:58;;;;;;;2.00;0.50;;;18.00;83.00;;;;;;7402551;19;19915;-79
2023/01/07 06:56:27;;;;;;;1.63;0.32;;;18.00;82.70;;;;;;7404796;19;19934;-79
2023/01/07 06:58:56;;;;;;;1.67;0.30;;;18.10;82.40;;;;;;7404216;19;19983;-79
2023/01/07 07:01:25;;;;;;;3.05;0.73;;;18.20;82.20;;;;;;7402684;19;19914;-78
2023/01/07 07:03:55;;;;;;;1.95;0.70;;;18.30;81.90;;;;;;7400785;19;19925;-79
2023/01/07 07:06:24;;;;;;;1.77;1.25;;;18.40;81.60;;;;;;7405214;19;19918;-78
2023/01/07 07:08:53;;;;;;;1.42;0.47;;;18.50;81.30;;;;;;7400230;19;19919;-80
2023/01/07 07:11:24;;;;;;;1.63;1.48;;;18.60;81.00;;;;;;7403859;19;20023;-80
2023/01/07 07:13:54;;;;;;;2.47;1.25;;;18.60;80.70;;;;;;7403188;19;19929;-77
2023/01/07 07:16:23;;;;;;;1.75;1.10;;;18.70;80.40;;;;;;7402800;19;19922;-79
2023/01/07 07:18:53;;;;;;;1.55;1.05;;;18.80;80.20;;;;;;7404381;19;20393;-79
2023/01/07 07:21:22;;;;;;;2.10;1.30;;;18.80;80.00;;;;;;7400023;19;19938;-77
2023/01/07 07:23:51;;;;;;;1.85;0.98;;;18.90;79.80;;;;;;7404445;19;19943;-80
2023/01/07 07:26:20;;;;;;;1.33;0.80;;;18.90;79.70;;;;;;7402281;19;19910;-79
2023/01/07 07:28:53;;;;;;;1.92;1.30;;;18.90;79.60;;;;;;7400983;19;19922;-80
2023/01/07 07:31:22;;;;;;;2.03;1.00;;;18.90;79.50;;;;;;7399441;19;19926;-80
2023/01/07 07:33:52;;;;;;;1.10;0.30;;;18.90;79.50;;;;;;7402880;19;20257;-79
2023/01/07 07:36:21;;;;;;;2.28;1.05;;;18.80;79.50;;;;;;7402313;19;19922;-79
2023/01/07 07:38:51;;;;;;;1.85;1.02;;;18.80;79.50;;;;;;7405323;19;20353;-79
2023/01/07 07:41:20;;;;;;;1.15;0.30;;;18.80;79.60;;;;;;7405111;19;19923;-80
2023/01/07 07:43:52;;;;;;;1.85;1.10;;;18.70;79.50;;;;;;7404150;19;19982;-79
2023/01/07 07:46:21;;;;;;;3.17;1.10;;;18.70;79.50;;;;;;7400982;19;19918;-81
2023/01/07 07:48:50;;;;;;;1.98;0.80;;;18.70;79.60;;;;;;7398520;19;19935;-79
2023/01/07 07:51:19;;;;;;;1.52;0.40;;;18.70;79.70;;;;;;7400014;19;19935;-67
2023/01/07 07:53:49;;;;;;;1.63;0.40;;;18.60;79.70;;;;;;7409260;19;20339;-67
2023/01/07 07:56:18;;;;;;;2.10;1.15;;;18.60;79.80;;;;;;7407727;19;19931;-68
2023/01/07 07:58:47;;;;;;;2.05;0.32;;;18.60;79.90;;;;;;7410061;19;19986;-77
2023/01/07 08:01:19;;;;;;;2.15;1.40;;;18.60;79.90;;;;;;7407131;19;19990;-74
2023/01/07 08:03:47;;;;;;;2.85;0.82;;;18.50;80.00;;;;;;7406458;19;20334;-74
2023/01/07 08:06:17;;;;;;;1.92;0.90;;;18.50;80.10;;;;;;7405709;19;19923;-74
2023/01/07 08:08:46;;;;;;;2.00;0.47;;;18.60;80.20;;;;;;7404108;19;19919;-74
2023/01/07 08:11:15;;;;;;;4.35;0.90;;;18.60;80.20;;;;;;7407433;19;19931;-72
2023/01/07 08:13:44;;;;;;;1.98;1.23;;;18.60;80.20;;;;;;7408285;19;19922;-74
2023/01/07 08:16:13;;;;;;;1.95;1.00;;;18.60;80.10;;;;;;7409947;19;19919;-74
2023/01/07 08:18:45;;;;;;;1.95;0.40;;;18.60;80.00;;;;;;7408626;19;19918;-73
2023/01/07 08:21:15;;;;;;;1.38;0.60;;;18.70;79.90;;;;;;7407907;19;19926;-74
2023/01/07 08:23:44;;;;;;;2.10;0.65;;;18.70;79.80;;;;;;7406363;19;19934;-75
2023/01/07 08:26:13;;;;;;;1.27;0.32;;;18.80;79.70;;;;;;7405568;19;19915;-73
2023/01/07 08:28:42;;;;;;;1.65;1.00;;;18.90;79.50;;;;;;7407071;19;19946;-74
2023/01/07 08:31:11;;;;;;;1.85;1.00;;;18.90;79.30;;;;;;7410391;19;20422;-73
2023/01/07 08:33:43;;;;;;;1.83;0.52;;;18.90;79.10;;;;;;7405813;19;19926;-74
2023/01/07 08:36:13;;;;;;;1.42;0.30;;;19.00;78.90;;;;;;7404896;19;20286;-74
2023/01/07 08:38:43;;;;;;;1.10;0.45;;;19.10;78.70;;;;;;7408786;19;19947;-74
2023/01/07 08:41:12;;;;;;;2.70;0.90;;;19.20;78.50;;;;;;7409826;19;19930;-74
2023/01/07 08:43:43;;;;;;;1.85;0.70;;;19.30;78.30;;;;;;7406282;19;19952;-74
2023/01/07 08:46:12;;;;;;;2.70;0.20;;;19.30;78.10;;;;;;7408689;19;19923;-73
2023/01/07 08:48:44;;;;;;;1.80;1.38;;;19.40;77.90;;;;;;7406175;19;19926;-73
2023/01/07 08:51:13;;;;;;;2.75;1.08;;;19.40;77.70;;;;;;7407210;19;19974;-73
2023/01/07 08:53:42;;;;;;;2.55;0.30;;;19.50;77.50;;;;;;7404912;19;19919;-73
2023/01/07 08:56:12;;;;;;;1.48;0.88;;;19.50;77.30;;;;;;7407333;19;19957;-73
2023/01/07 08:58:42;;;;;;;1.88;1.02;;;19.60;77.20;;;;;;7406204;19;19918;-74
2023/01/07 09:01:12;;;;;;;1.40;0.75;;;19.60;77.00;;;;;;7407498;19;19984;-73
2023/01/07 09:03:44;;;;;;;1.73;0.80;;;19.70;76.80;;;;;;7404274;19;20491;-73
2023/01/07 09:06:13;;;;;;;1.60;0.90;;;19.70;76.70;;;;;;7406074;19;20376;-73
2023/01/07 09:08:42;;;;;;;1.70;1.10;;;19.70;76.50;;;;;;7406583;19;19930;-74
2023/01/07 09:11:11;;;;;;;1.95;0.82;;;19.80;76.50;;;;;;7407726;19;19931;-74
2023/01/07 09:13:40;;;;;;;1.60;0.90;;;19.80;76.30;;;;;;7405788;19;19918;-72
2023/01/07 09:16:09;;;;;;;1.58;0.70;;;19.80;76.20;;;;;;7406333;19;19930;-73
2023/01/07 09:18:39;;;;;;;1.23;0.80;;;19.80;76.10;;;;;;7404467;19;19941;-73
2023/01/07 09:21:31;;;;;;;1.25;0.20;;;19.90;76.00;;;;;;7402564;19;19922;-73
2023/01/07 09:24:21;;;;;;;1.50;0.30;;;19.90;75.90;;;;;;7404301;19;19934;-74
2023/01/07 09:26:50;;;;;;;1.35;0.40;;;20.00;75.80;;;;;;7407757;19;20340;-75
2023/01/07 09:29:20;;;;;;;2.25;0.30;;;20.00;75.70;;;;;;7403855;19;19930;-75
2023/01/07 09:31:49;;;;;;;1.15;0.22;;;20.00;75.60;;;;;;7391415;19;19943;-74
2023/01/07 09:34:18;;;;;;;2.08;0.40;;;19.90;75.50;;;;;;7399814;19;20339;-75
2023/01/07 09:36:50;;;;;;;1.15;0.25;;;19.90;75.60;;;;;;7403856;19;19934;-74
2023/01/07 09:39:19;;;;;;;4.32;1.25;;;19.90;75.60;;;;;;7397528;19;19922;-72
2023/01/07 09:41:56;;;;;;;3.80;1.15;;;19.90;76.20;;;;;;7401763;19;19955;-73
2023/01/07 09:44:39;;;;;;;2.35;0.40;;;19.90;76.90;;;;;;7400511;19;19918;-72
2023/01/07 09:47:10;;;;;;;2.42;0.80;;;19.90;77.30;;;;;;7395257;19;19926;-72
2023/01/07 09:49:40;;;;;;;1.98;1.13;;;19.90;78.30;;;;;;7400067;19;19923;-72
2023/01/07 09:52:19;;;;;;;2.85;0.80;;;19.80;78.90;;;;;;7402047;19;19953;-66
2023/01/07 09:54:52;;;;;;;1.52;0.65;;;19.80;79.50;;;;;;7398841;19;20810;-68
2023/01/07 09:57:26;;;;;;;3.05;1.25;;;19.70;79.70;;;;;;7398365;19;19990;-68
2023/01/07 09:59:55;;;;;;;1.73;0.40;;;19.70;79.90;;;;;;7398591;19;19990;-71
2023/01/07 10:02:36;;;;;;;2.63;1.13;;;19.70;80.10;;;;;;7400314;19;19988;-74
2023/01/07 10:05:20;;;;;;;1.63;1.05;;;19.60;80.50;;;;;;7399878;19;19929;-69
2023/01/07 10:08:01;;;;;;;4.03;1.02;;;19.60;80.60;;;;;;7400780;19;19927;-72
2023/01/07 10:10:35;;;;;;;1.65;0.70;;;19.50;80.60;;;;;;7399887;19;19914;-67
2023/01/07 10:13:17;;;;;;;1.70;0.90;;;19.50;80.70;;;;;;7401658;19;19978;-68
2023/01/07 10:15:59;;;;;;;2.65;0.85;;;19.50;80.80;;;;;;7397005;19;19922;-67
2023/01/07 10:18:41;;;;;;;3.47;1.10;;;19.40;80.80;;;;;;7403423;19;19982;-66
2023/01/07 10:21:18;;;;;;;3.05;0.75;;;19.40;80.90;;;;;;7399164;19;19918;-67
2023/01/07 10:23:57;;;;;;;1.52;0.80;;;19.30;80.80;;;;;;7398910;19;19915;-64
2023/01/07 10:26:35;;;;;;;2.78;1.00;;;19.30;80.80;;;;;;7397240;19;19987;-68
2023/01/07 10:29:13;;;;;;;3.10;1.23;;;19.30;80.90;;;;;;7398761;19;19922;-67
2023/01/07 10:31:45;;;;;;;3.30;0.90;;;19.20;80.80;;;;;;7396446;19;19922;-66
2023/01/07 10:34:18;;;;;;;2.63;0.35;;;19.20;80.80;;;;;;7400623;19;19935;-73
2023/01/07 10:37:01;;;;;;;1.52;0.80;;;19.20;80.70;;;;;;7397267;19;19914;-65
2023/01/07 10:39:48;;;;;;;1.40;0.60;;;19.20;80.80;;;;;;7401588;19;20585;-69
2023/01/07 10:42:26;;;;;;;3.13;1.10;;;19.10;80.80;;;;;;7400640;19;19922;-70
2023/01/07 10:45:31;;;;;;;1.83;0.50;;;19.10;81.00;;;;;;7402962;19;19915;-71
2023/01/07 10:48:33;;;;;;;2.72;0.85;;;19.10;81.00;;;;;;7400963;19;20518;-72
2023/01/07 10:51:19;;;;;;;3.00;0.82;;;19.00;81.10;;;;;;7402454;19;19926;-67
2023/01/07 10:54:00;;;;;;;2.95;0.82;;;19.00;81.30;;;;;;7396612;19;20483;-69
2023/01/07 10:56:34;;;;;;;2.05;0.73;;;19.00;81.40;;;;;;7403950;19;19922;-69
2023/01/07 10:59:03;;;;;;;1.73;0.77;;;19.00;81.50;;;;;;7404197;19;19918;-69
2023/01/07 11:01:34;;;;;;;;;;;18.90;81.50;;;;;;7404129;19;19950;-69
2023/01/07 11:04:04;;;;;;;4.63;0.93;;;18.80;81.40;;;;;;7401591;19;19926;-69
2023/01/07 11:06:42;;;;;;;1.38;0.65;;;18.80;81.60;;;;;;7403051;19;19918;-68
2023/01/07 11:09:15;;;;;;;2.13;1.15;;;18.80;81.50;;;;;;7401625;19;19919;-68
2023/01/07 11:11:48;;;;;;;1.25;0.30;;;18.80;81.40;;;;;;7403901;19;19926;-69
2023/01/07 11:14:24;;;;;;;1.70;0.63;;;18.80;81.30;;;;;;7402587;19;19958;-68
2023/01/07 11:16:58;;;;;;;2.45;0.73;;;18.80;81.20;;;;;;7401622;19;19926;-69
2023/01/07 11:19:45;;;;;;;1.80;0.25;;;18.80;81.10;;;;;;7401427;19;20268;-68
2023/01/07 11:22:32;;;;;;;1.92;0.80;;;18.80;80.90;;;;;;7402968;19;19924;-68
2023/01/07 11:25:02;;;;;;;1.95;0.80;;;18.90;80.70;;;;;;7402616;19;19930;-69
2023/01/07 11:27:36;;;;;;;1.52;0.80;;;19.00;80.50;;;;;;7406482;19;19942;-68
2023/01/07 11:30:09;;;;;;;1.92;1.52;;;19.00;80.30;;;;;;7406218;19;20363;-69
2023/01/07 11:32:42;;;;;;;1.65;1.13;;;19.10;80.10;;;;;;7401065;19;19938;-68
2023/01/07 11:35:21;;;;;;;1.55;0.73;;;19.10;79.70;;;;;;7397231;19;19918;-68
2023/01/07 11:37:51;;;;;;;1.77;0.80;;;19.20;79.30;;;;;;7404971;19;19925;-70
2023/01/07 11:40:26;;;;;;;1.20;0.50;;;19.30;78.90;;;;;;7401509;19;19922;-66
2023/01/07 11:43:00;;;;;;;1.42;0.13;;;19.30;78.50;;;;;;7401911;19;19927;-66
2023/01/07 11:45:33;;;;;;;1.27;0.20;;;19.40;78.30;;;;;;7402721;19;19929;-66
2023/01/07 11:48:21;;;;;;;2.10;0.93;;;19.50;78.10;;;;;;7403734;19;19922;-80
2023/01/07 11:50:58;;;;;;;2.60;1.20;;;19.50;77.90;;;;;;7403417;19;19923;-68
2023/01/07 11:53:35;;;;;;;2.13;0.90;;;19.70;77.80;;;;;;7403083;19;19918;-66
2023/01/07 11:56:15;;;;;;;3.40;0.75;;;19.70;77.60;;;;;;7395036;19;19982;-67
2023/01/07 11:58:49;;;;;;;1.15;0.20;;;19.80;77.50;;;;;;7404106;19;19963;-65
2023/01/07 12:01:20;;;;;;;2.92;0.90;;;19.80;77.50;;;;;;7403481;19;19930;-66
2023/01/07 12:04:13;;;;;;;2.97;1.10;;;19.90;77.40;;;;;;7404091;19;19926;-79
2023/01/07 12:06:46;;;;;;;2.90;0.70;;;19.90;77.40;;;;;;7404956;19;19921;-69
2023/01/07 12:09:28;;;;;;;1.92;0.90;;;19.90;77.20;;;;;;7399469;19;19982;-67
2023/01/07 12:12:00;;;;;;;1.35;0.20;;;19.90;77.10;;;;;;7409246;19;19978;-78
2023/01/07 12:14:40;;;;;;;2.45;0.95;;;19.90;77.10;;;;;;7405778;19;19937;-74
2023/01/07 12:17:14;;;;;;;0.98;0.30;;;19.90;77.10;;;;;;7401466;19;19919;-72
2023/01/07 12:20:15;;;;;;;3.30;0.63;;;19.90;77.10;;;;;;7403848;19;20408;-73
2023/01/07 12:22:55;;;;;;;1.98;0.60;;;19.80;77.00;;;;;;7400807;19;19967;-69
2023/01/07 12:25:39;;;;;;;3.17;0.20;;;19.80;77.10;;;;;;7403768;19;19919;-61
2023/01/07 12:28:14;;;;;;;2.38;1.27;;;19.70;77.10;;;;;;7404711;19;19918;-68
2023/01/07 12:31:16;;;;;;;3.35;0.75;;;19.70;77.10;;;;;;7397392;19;19923;-67
2023/01/07 12:34:06;;;;;;;3.50;0.40;;;19.60;77.10;;;;;;7400763;19;20735;-70
2023/01/07 12:36:44;;;;;;;3.67;1.65;;;19.60;77.90;;;;;;7397786;19;20373;-69
2023/01/07 12:39:20;;;;;;;3.78;0.80;;;19.60;77.40;;;;;;7401038;19;19933;-68
2023/01/07 12:41:58;;;;;;;2.88;0.20;;;19.50;77.50;;;;;;7404594;19;19919;-70
2023/01/07 12:44:27;;;;;;;2.67;0.22;;;19.50;77.50;;;;;;7405079;19;19926;-68
2023/01/07 12:47:08;;;;;;;5.22;0.40;;;19.40;77.60;;;;;;7406715;19;19935;-71
2023/01/07 12:49:46;;;;;;;2.22;0.20;;;19.40;77.70;;;;;;7403404;19;19986;-69
2023/01/07 12:52:21;;;;;;;4.32;0.65;;;19.40;77.80;;;;;;7404785;19;19922;-72
2023/01/07 12:54:56;;;;;;;3.42;0.20;;;19.40;77.90;;;;;;7405045;19;19923;-68
2023/01/07 12:57:33;;;;;;;2.22;0.50;;;19.30;77.80;;;;;;7403493;19;19918;-70
2023/01/07 13:00:07;;;;;;;1.80;0.68;;;19.30;77.90;;;;;;7404413;19;19918;-72
2023/01/07 13:02:47;;;;;;;2.28;0.60;;;19.30;78.00;;;;;;7399761;19;19922;-73
2023/01/07 13:05:18;;;;;;;3.03;0.35;;;19.30;78.40;;;;;;7403035;19;19922;-73
2023/01/07 13:07:53;;;;;;;4.35;0.40;;;19.30;78.20;;;;;;7402812;19;19933;-73
2023/01/07 13:10:28;;;;;;;3.55;1.00;;;19.30;78.60;;;;;;7402967;19;19923;-74
2023/01/07 13:13:01;;;;;;;8.73;2.30;;;19.30;78.90;;;;;;7401047;19;19923;-73
2023/01/07 13:15:32;;;;;;;12.27;3.58;;;19.30;79.40;;;;;;7404938;19;19922;-73
2023/01/07 13:18:14;;;;;;;10.13;3.25;;;19.30;79.80;;;;;;7401778;19;19948;-75
2023/01/07 13:20:58;;;;;;;15.02;4.80;;;19.30;80.30;;;;;;7405134;19;19926;-73
2023/01/07 13:23:40;;;;;;;12.15;3.83;;;19.30;81.20;;;;;;7402757;19;19965;-72
2023/01/07 13:26:21;;;;;;;13.73;3.47;;;19.30;81.60;;;;;;7402717;19;20347;-73
2023/01/07 13:29:09;;;;;;;15.07;4.22;;;19.30;82.40;;;;;;7396183;19;19918;-69
2023/01/07 13:32:08;;;;;;;10.45;2.65;;;19.40;83.40;;;;;;7399471;19;19974;-68